Terminal Aerodrome Forecast
Issued by NWS

Home | Current Version | Previous Version | Text Only | Print | Product List | Glossary On
Versions: 1 2 3 4 5 6 7 8 9 10 11 12 13 14 15 16
521
FTUS43 KGRB 272340
TAFAUW
TAF
KAUW 272340Z 2800/2824 27006KT P6SM BKN110
     FM280400 26003KT P6SM VCSH SCT040 BKN080
      TEMPO 2810/2814 -SHRA BKN040
     FM281400 23006KT P6SM VCSH SCT040 BKN080 PROB30 2817/2821 5SM
      -TSRA BKN035CB
     FM282100 27011G18KT P6SM SCT040=

USA.gov is the U.S. government's official web portal to all federal, state and local government web resources and services.